sensor_id;sensor_type;location;lat;lon;timestamp;temperature;humidity
62259;DHT22;48241;48.824;10.102;2023-09-07T00:01:55;17.90;93.40
62259;DHT22;48241;48.824;10.102;2023-09-07T00:04:20;17.80;93.40
62259;DHT22;48241;48.824;10.102;2023-09-07T00:06:50;17.80;93.50
62259;DHT22;48241;48.824;10.102;2023-09-07T00:09:16;17.80;93.50
62259;DHT22;48241;48.824;10.102;2023-09-07T00:11:44;17.70;94.00
62259;DHT22;48241;48.824;10.102;2023-09-07T00:14:10;17.70;93.70
62259;DHT22;48241;48.824;10.102;2023-09-07T00:16:36;17.70;94.20
62259;DHT22;48241;48.824;10.102;2023-09-07T00:19:04;17.70;94.20
62259;DHT22;48241;48.824;10.102;2023-09-07T00:21:30;17.70;94.20
62259;DHT22;48241;48.824;10.102;2023-09-07T00:23:55;17.60;94.30
62259;DHT22;48241;48.824;10.102;2023-09-07T00:26:21;17.60;94.70
62259;DHT22;48241;48.824;10.102;2023-09-07T00:28:47;17.70;94.60
62259;DHT22;48241;48.824;10.102;2023-09-07T00:31:12;17.60;94.40
62259;DHT22;48241;48.824;10.102;2023-09-07T00:33:38;17.60;94.40
62259;DHT22;48241;48.824;10.102;2023-09-07T00:36:04;17.70;94.60
62259;DHT22;48241;48.824;10.102;2023-09-07T00:38:29;17.60;94.70
62259;DHT22;48241;48.824;10.102;2023-09-07T00:40:55;17.60;94.70
62259;DHT22;48241;48.824;10.102;2023-09-07T00:43:21;17.70;94.50
62259;DHT22;48241;48.824;10.102;2023-09-07T00:45:46;17.60;94.90
62259;DHT22;48241;48.824;10.102;2023-09-07T00:48:14;17.50;95.00
62259;DHT22;48241;48.824;10.102;2023-09-07T00:50:40;17.60;95.30
62259;DHT22;48241;48.824;10.102;2023-09-07T00:53:06;17.50;95.30
62259;DHT22;48241;48.824;10.102;2023-09-07T00:55:33;17.60;95.50
62259;DHT22;48241;48.824;10.102;2023-09-07T00:58:00;17.40;95.60
62259;DHT22;48241;48.824;10.102;2023-09-07T01:00:26;17.40;95.40
62259;DHT22;48241;48.824;10.102;2023-09-07T01:02:52;17.40;95.30
62259;DHT22;48241;48.824;10.102;2023-09-07T01:05:19;17.40;95.70
62259;DHT22;48241;48.824;10.102;2023-09-07T01:07:50;17.30;95.80
62259;DHT22;48241;48.824;10.102;2023-09-07T01:10:17;17.10;96.20
62259;DHT22;48241;48.824;10.102;2023-09-07T01:12:44;17.20;96.20
62259;DHT22;48241;48.824;10.102;2023-09-07T01:15:10;17.30;95.80
62259;DHT22;48241;48.824;10.102;2023-09-07T01:17:36;17.10;95.90
62259;DHT22;48241;48.824;10.102;2023-09-07T01:20:05;17.00;96.30
62259;DHT22;48241;48.824;10.102;2023-09-07T01:22:35;16.90;96.90
62259;DHT22;48241;48.824;10.102;2023-09-07T01:25:01;17.00;96.70
62259;DHT22;48241;48.824;10.102;2023-09-07T01:27:27;17.00;96.50
62259;DHT22;48241;48.824;10.102;2023-09-07T01:29:53;17.00;96.20
62259;DHT22;48241;48.824;10.102;2023-09-07T01:32:18;17.10;96.50
62259;DHT22;48241;48.824;10.102;2023-09-07T01:34:44;17.00;96.50
62259;DHT22;48241;48.824;10.102;2023-09-07T01:37:10;17.10;96.30
62259;DHT22;48241;48.824;10.102;2023-09-07T01:39:35;17.10;96.60
62259;DHT22;48241;48.824;10.102;2023-09-07T01:42:01;16.90;97.00
62259;DHT22;48241;48.824;10.102;2023-09-07T01:44:26;17.10;97.10
62259;DHT22;48241;48.824;10.102;2023-09-07T01:46:52;17.00;96.90
62259;DHT22;48241;48.824;10.102;2023-09-07T01:49:18;16.80;97.00
62259;DHT22;48241;48.824;10.102;2023-09-07T01:51:43;16.90;96.90
62259;DHT22;48241;48.824;10.102;2023-09-07T01:54:09;17.10;96.50
62259;DHT22;48241;48.824;10.102;2023-09-07T01:56:35;17.00;96.80
62259;DHT22;48241;48.824;10.102;2023-09-07T01:59:00;17.00;97.00
62259;DHT22;48241;48.824;10.102;2023-09-07T02:01:28;17.00;96.70
62259;DHT22;48241;48.824;10.102;2023-09-07T02:03:59;16.90;97.20
62259;DHT22;48241;48.824;10.102;2023-09-07T02:06:25;16.80;97.00
62259;DHT22;48241;48.824;10.102;2023-09-07T02:08:50;16.90;97.30
62259;DHT22;48241;48.824;10.102;2023-09-07T02:11:16;16.90;97.30
62259;DHT22;48241;48.824;10.102;2023-09-07T02:13:42;16.90;97.10
62259;DHT22;48241;48.824;10.102;2023-09-07T02:16:08;16.90;97.00
62259;DHT22;48241;48.824;10.102;2023-09-07T02:18:34;16.70;97.30
62259;DHT22;48241;48.824;10.102;2023-09-07T02:21:04;16.70;97.30
62259;DHT22;48241;48.824;10.102;2023-09-07T02:23:31;16.70;97.40
62259;DHT22;48241;48.824;10.102;2023-09-07T02:25:57;16.70;97.40
62259;DHT22;48241;48.824;10.102;2023-09-07T02:28:23;16.80;97.50
62259;DHT22;48241;48.824;10.102;2023-09-07T02:30:49;16.50;97.60
62259;DHT22;48241;48.824;10.102;2023-09-07T02:33:15;16.60;97.60
62259;DHT22;48241;48.824;10.102;2023-09-07T02:35:40;16.70;97.20
62259;DHT22;48241;48.824;10.102;2023-09-07T02:38:06;16.80;97.00
62259;DHT22;48241;48.824;10.102;2023-09-07T02:40:31;16.90;96.70
62259;DHT22;48241;48.824;10.102;2023-09-07T02:42:57;16.90;96.60
62259;DHT22;48241;48.824;10.102;2023-09-07T02:45:22;17.10;96.50
62259;DHT22;48241;48.824;10.102;2023-09-07T02:47:48;16.90;96.80
62259;DHT22;48241;48.824;10.102;2023-09-07T02:50:16;17.00;96.60
62259;DHT22;48241;48.824;10.102;2023-09-07T02:52:43;17.00;95.90
62259;DHT22;48241;48.824;10.102;2023-09-07T02:55:08;17.00;95.60
62259;DHT22;48241;48.824;10.102;2023-09-07T02:57:34;17.10;95.60
62259;DHT22;48241;48.824;10.102;2023-09-07T03:00:00;17.10;95.80
62259;DHT22;48241;48.824;10.102;2023-09-07T03:02:27;17.10;95.00
62259;DHT22;48241;48.824;10.102;2023-09-07T03:04:54;17.30;95.20
62259;DHT22;48241;48.824;10.102;2023-09-07T03:07:20;17.50;94.00
62259;DHT22;48241;48.824;10.102;2023-09-07T03:09:45;17.70;93.50
62259;DHT22;48241;48.824;10.102;2023-09-07T03:12:11;17.80;93.10
62259;DHT22;48241;48.824;10.102;2023-09-07T03:14:36;17.80;92.30
62259;DHT22;48241;48.824;10.102;2023-09-07T03:17:02;17.90;92.40
62259;DHT22;48241;48.824;10.102;2023-09-07T03:19:29;17.90;92.40
62259;DHT22;48241;48.824;10.102;2023-09-07T03:21:54;18.00;91.90
62259;DHT22;48241;48.824;10.102;2023-09-07T03:24:20;18.10;91.80
62259;DHT22;48241;48.824;10.102;2023-09-07T03:26:46;18.20;91.60
62259;DHT22;48241;48.824;10.102;2023-09-07T03:29:11;18.10;91.30
62259;DHT22;48241;48.824;10.102;2023-09-07T03:31:37;18.30;91.00
62259;DHT22;48241;48.824;10.102;2023-09-07T03:34:02;18.40;91.10
62259;DHT22;48241;48.824;10.102;2023-09-07T03:36:28;18.50;90.60
62259;DHT22;48241;48.824;10.102;2023-09-07T03:38:53;18.50;90.30
62259;DHT22;48241;48.824;10.102;2023-09-07T03:41:19;18.60;90.20
62259;DHT22;48241;48.824;10.102;2023-09-07T03:43:44;18.50;89.90
62259;DHT22;48241;48.824;10.102;2023-09-07T03:46:10;18.40;90.70
62259;DHT22;48241;48.824;10.102;2023-09-07T03:48:36;18.70;90.40
62259;DHT22;48241;48.824;10.102;2023-09-07T03:51:06;18.30;90.90
62259;DHT22;48241;48.824;10.102;2023-09-07T03:53:31;18.30;90.90
62259;DHT22;48241;48.824;10.102;2023-09-07T03:55:57;18.20;90.80
62259;DHT22;48241;48.824;10.102;2023-09-07T03:58:23;18.20;90.50
62259;DHT22;48241;48.824;10.102;2023-09-07T04:00:49;18.10;90.30
62259;DHT22;48241;48.824;10.102;2023-09-07T04:03:14;18.20;90.30
62259;DHT22;48241;48.824;10.102;2023-09-07T04:05:40;18.20;90.10
62259;DHT22;48241;48.824;10.102;2023-09-07T04:08:06;18.40;90.20
62259;DHT22;48241;48.824;10.102;2023-09-07T04:10:32;18.20;90.10
62259;DHT22;48241;48.824;10.102;2023-09-07T04:12:58;18.50;90.60
62259;DHT22;48241;48.824;10.102;2023-09-07T04:15:24;18.40;89.90
62259;DHT22;48241;48.824;10.102;2023-09-07T04:17:52;18.50;89.30
62259;DHT22;48241;48.824;10.102;2023-09-07T04:20:17;18.40;88.60
62259;DHT22;48241;48.824;10.102;2023-09-07T04:22:43;18.50;89.60
62259;DHT22;48241;48.824;10.102;2023-09-07T04:25:08;18.50;89.20
62259;DHT22;48241;48.824;10.102;2023-09-07T04:27:34;18.50;88.10
62259;DHT22;48241;48.824;10.102;2023-09-07T04:29:59;18.60;88.30
62259;DHT22;48241;48.824;10.102;2023-09-07T04:32:25;18.70;87.40
62259;DHT22;48241;48.824;10.102;2023-09-07T04:34:55;18.60;87.60
62259;DHT22;48241;48.824;10.102;2023-09-07T04:37:22;18.50;89.70
62259;DHT22;48241;48.824;10.102;2023-09-07T04:39:51;18.50;88.70
62259;DHT22;48241;48.824;10.102;2023-09-07T04:42:17;18.50;90.10
62259;DHT22;48241;48.824;10.102;2023-09-07T04:44:43;18.50;89.40
62259;DHT22;48241;48.824;10.102;2023-09-07T04:47:08;18.40;90.30
62259;DHT22;48241;48.824;10.102;2023-09-07T04:49:34;18.10;90.60
62259;DHT22;48241;48.824;10.102;2023-09-07T04:51:59;18.20;91.20
62259;DHT22;48241;48.824;10.102;2023-09-07T04:54:25;18.10;90.20
62259;DHT22;48241;48.824;10.102;2023-09-07T04:56:50;17.90;91.10
62259;DHT22;48241;48.824;10.102;2023-09-07T04:59:16;17.60;90.80
62259;DHT22;48241;48.824;10.102;2023-09-07T05:01:42;17.30;90.80
62259;DHT22;48241;48.824;10.102;2023-09-07T05:04:07;17.70;91.50
62259;DHT22;48241;48.824;10.102;2023-09-07T05:06:33;17.70;92.00
62259;DHT22;48241;48.824;10.102;2023-09-07T05:09:03;17.70;91.60
62259;DHT22;48241;48.824;10.102;2023-09-07T05:11:28;17.60;91.20
62259;DHT22;48241;48.824;10.102;2023-09-07T05:13:54;17.60;91.70
62259;DHT22;48241;48.824;10.102;2023-09-07T05:16:19;17.70;91.40
62259;DHT22;48241;48.824;10.102;2023-09-07T05:18:45;17.80;91.90
62259;DHT22;48241;48.824;10.102;2023-09-07T05:21:14;17.90;91.40
62259;DHT22;48241;48.824;10.102;2023-09-07T05:23:40;17.50;92.10
62259;DHT22;48241;48.824;10.102;2023-09-07T05:26:06;17.50;91.60
62259;DHT22;48241;48.824;10.102;2023-09-07T05:28:32;17.50;91.00
62259;DHT22;48241;48.824;10.102;2023-09-07T05:30:57;17.60;90.70
62259;DHT22;48241;48.824;10.102;2023-09-07T05:33:23;17.80;91.70
62259;DHT22;48241;48.824;10.102;2023-09-07T05:35:52;17.80;92.10
62259;DHT22;48241;48.824;10.102;2023-09-07T05:38:20;17.70;91.20
62259;DHT22;48241;48.824;10.102;2023-09-07T05:40:46;18.00;90.70
62259;DHT22;48241;48.824;10.102;2023-09-07T05:43:15;18.00;91.70
62259;DHT22;48241;48.824;10.102;2023-09-07T05:45:47;17.90;91.60
62259;DHT22;48241;48.824;10.102;2023-09-07T05:48:13;18.30;91.00
62259;DHT22;48241;48.824;10.102;2023-09-07T05:50:41;18.20;89.60
62259;DHT22;48241;48.824;10.102;2023-09-07T05:53:07;18.20;90.40
62259;DHT22;48241;48.824;10.102;2023-09-07T05:55:32;18.20;89.90
62259;DHT22;48241;48.824;10.102;2023-09-07T05:57:59;18.30;89.20
62259;DHT22;48241;48.824;10.102;2023-09-07T06:00:25;18.60;87.80
62259;DHT22;48241;48.824;10.102;2023-09-07T06:02:54;19.00;86.30
62259;DHT22;48241;48.824;10.102;2023-09-07T06:05:19;19.10;86.70
62259;DHT22;48241;48.824;10.102;2023-09-07T06:07:45;19.30;83.80
62259;DHT22;48241;48.824;10.102;2023-09-07T06:10:10;19.30;85.20
62259;DHT22;48241;48.824;10.102;2023-09-07T06:12:36;19.60;83.30
62259;DHT22;48241;48.824;10.102;2023-09-07T06:15:06;19.80;83.00
62259;DHT22;48241;48.824;10.102;2023-09-07T06:17:44;19.80;81.00
62259;DHT22;48241;48.824;10.102;2023-09-07T06:20:35;19.90;80.80
62259;DHT22;48241;48.824;10.102;2023-09-07T06:23:04;19.90;81.60
62259;DHT22;48241;48.824;10.102;2023-09-07T06:25:35;20.10;83.80
62259;DHT22;48241;48.824;10.102;2023-09-07T06:28:04;20.20;80.20
62259;DHT22;48241;48.824;10.102;2023-09-07T06:30:32;20.20;80.80
62259;DHT22;48241;48.824;10.102;2023-09-07T06:33:01;20.40;80.50
62259;DHT22;48241;48.824;10.102;2023-09-07T06:35:37;20.40;81.40
62259;DHT22;48241;48.824;10.102;2023-09-07T06:38:30;20.30;78.60
62259;DHT22;48241;48.824;10.102;2023-09-07T06:41:01;20.40;78.30
62259;DHT22;48241;48.824;10.102;2023-09-07T06:43:27;20.30;80.70
62259;DHT22;48241;48.824;10.102;2023-09-07T06:46:10;20.30;78.40
62259;DHT22;48241;48.824;10.102;2023-09-07T06:48:36;20.40;77.70
62259;DHT22;48241;48.824;10.102;2023-09-07T06:51:08;20.40;79.30
62259;DHT22;48241;48.824;10.102;2023-09-07T06:53:37;20.50;80.60
62259;DHT22;48241;48.824;10.102;2023-09-07T06:56:12;20.60;80.30
62259;DHT22;48241;48.824;10.102;2023-09-07T06:58:41;20.70;80.00
62259;DHT22;48241;48.824;10.102;2023-09-07T07:01:07;20.80;77.70
62259;DHT22;48241;48.824;10.102;2023-09-07T07:03:33;20.90;77.60
62259;DHT22;48241;48.824;10.102;2023-09-07T07:06:00;20.90;77.10
62259;DHT22;48241;48.824;10.102;2023-09-07T07:08:25;20.90;77.40
62259;DHT22;48241;48.824;10.102;2023-09-07T07:10:51;21.00;78.40
62259;DHT22;48241;48.824;10.102;2023-09-07T07:13:16;21.30;76.40
62259;DHT22;48241;48.824;10.102;2023-09-07T07:15:42;21.20;76.20
62259;DHT22;48241;48.824;10.102;2023-09-07T07:18:08;21.20;76.50
62259;DHT22;48241;48.824;10.102;2023-09-07T07:20:40;21.20;76.70
62259;DHT22;48241;48.824;10.102;2023-09-07T07:23:05;21.30;76.10
62259;DHT22;48241;48.824;10.102;2023-09-07T07:25:32;21.50;77.10
62259;DHT22;48241;48.824;10.102;2023-09-07T07:27:59;21.40;76.30
62259;DHT22;48241;48.824;10.102;2023-09-07T07:30:28;21.60;77.60
62259;DHT22;48241;48.824;10.102;2023-09-07T07:32:56;21.80;75.40
62259;DHT22;48241;48.824;10.102;2023-09-07T07:35:22;21.90;75.10
62259;DHT22;48241;48.824;10.102;2023-09-07T07:37:49;22.10;75.50
62259;DHT22;48241;48.824;10.102;2023-09-07T07:40:15;22.30;74.60
62259;DHT22;48241;48.824;10.102;2023-09-07T07:42:40;22.70;73.60
62259;DHT22;48241;48.824;10.102;2023-09-07T07:45:07;23.50;70.60
62259;DHT22;48241;48.824;10.102;2023-09-07T07:47:32;24.60;69.10
62259;DHT22;48241;48.824;10.102;2023-09-07T07:49:58;26.50;62.30
62259;DHT22;48241;48.824;10.102;2023-09-07T07:52:23;28.60;58.70
62259;DHT22;48241;48.824;10.102;2023-09-07T07:54:49;29.10;54.70
62259;DHT22;48241;48.824;10.102;2023-09-07T07:57:18;29.70;53.20
62259;DHT22;48241;48.824;10.102;2023-09-07T07:59:43;30.20;52.00
62259;DHT22;48241;48.824;10.102;2023-09-07T08:02:09;30.60;52.70
62259;DHT22;48241;48.824;10.102;2023-09-07T08:04:37;32.00;48.90
62259;DHT22;48241;48.824;10.102;2023-09-07T08:07:09;33.00;46.90
62259;DHT22;48241;48.824;10.102;2023-09-07T08:10:13;33.00;46.00
62259;DHT22;48241;48.824;10.102;2023-09-07T08:12:39;34.20;45.30
62259;DHT22;48241;48.824;10.102;2023-09-07T08:15:13;34.40;44.20
62259;DHT22;48241;48.824;10.102;2023-09-07T08:17:53;34.80;42.80
62259;DHT22;48241;48.824;10.102;2023-09-07T08:21:03;34.30;43.50
62259;DHT22;48241;48.824;10.102;2023-09-07T08:23:29;34.10;43.30
62259;DHT22;48241;48.824;10.102;2023-09-07T08:26:00;33.90;44.30
62259;DHT22;48241;48.824;10.102;2023-09-07T08:28:29;34.70;43.60
62259;DHT22;48241;48.824;10.102;2023-09-07T08:34:25;33.60;42.70
62259;DHT22;48241;48.824;10.102;2023-09-07T08:36:54;33.50;43.70
62259;DHT22;48241;48.824;10.102;2023-09-07T08:39:42;33.80;43.80
62259;DHT22;48241;48.824;10.102;2023-09-07T08:42:35;34.70;43.80
62259;DHT22;48241;48.824;10.102;2023-09-07T08:45:29;35.40;42.70
62259;DHT22;48241;48.824;10.102;2023-09-07T08:48:17;34.90;42.00
62259;DHT22;48241;48.824;10.102;2023-09-07T08:50:47;33.00;44.40
62259;DHT22;48241;48.824;10.102;2023-09-07T08:53:27;33.40;44.00
62259;DHT22;48241;48.824;10.102;2023-09-07T08:56:07;32.60;44.10
62259;DHT22;48241;48.824;10.102;2023-09-07T08:58:42;33.10;45.80
62259;DHT22;48241;48.824;10.102;2023-09-07T09:01:26;33.70;45.40
62259;DHT22;48241;48.824;10.102;2023-09-07T09:03:57;33.10;43.80
62259;DHT22;48241;48.824;10.102;2023-09-07T09:06:55;33.70;44.10
62259;DHT22;48241;48.824;10.102;2023-09-07T09:09:25;34.20;43.20
62259;DHT22;48241;48.824;10.102;2023-09-07T09:11:51;34.70;43.40
62259;DHT22;48241;48.824;10.102;2023-09-07T09:14:43;34.60;43.00
62259;DHT22;48241;48.824;10.102;2023-09-07T09:17:57;33.90;42.90
62259;DHT22;48241;48.824;10.102;2023-09-07T09:20:25;33.50;43.60
62259;DHT22;48241;48.824;10.102;2023-09-07T09:23:03;32.10;45.10
62259;DHT22;48241;48.824;10.102;2023-09-07T09:25:31;31.90;46.20
62259;DHT22;48241;48.824;10.102;2023-09-07T09:27:57;31.70;46.80
62259;DHT22;48241;48.824;10.102;2023-09-07T09:30:38;32.10;47.40
62259;DHT22;48241;48.824;10.102;2023-09-07T09:33:13;32.90;46.20
62259;DHT22;48241;48.824;10.102;2023-09-07T09:35:54;33.70;45.90
62259;DHT22;48241;48.824;10.102;2023-09-07T09:38:20;33.70;44.10
62259;DHT22;48241;48.824;10.102;2023-09-07T09:40:46;34.20;44.10
62259;DHT22;48241;48.824;10.102;2023-09-07T09:43:13;34.30;46.20
62259;DHT22;48241;48.824;10.102;2023-09-07T09:45:39;34.20;44.50
62259;DHT22;48241;48.824;10.102;2023-09-07T09:48:20;34.80;42.70
62259;DHT22;48241;48.824;10.102;2023-09-07T09:51:10;35.60;42.10
62259;DHT22;48241;48.824;10.102;2023-09-07T09:53:55;34.30;44.00
62259;DHT22;48241;48.824;10.102;2023-09-07T09:56:21;34.20;43.10
62259;DHT22;48241;48.824;10.102;2023-09-07T09:58:57;34.50;43.70
62259;DHT22;48241;48.824;10.102;2023-09-07T10:01:22;34.30;42.20
62259;DHT22;48241;48.824;10.102;2023-09-07T10:03:57;35.10;43.70
62259;DHT22;48241;48.824;10.102;2023-09-07T10:06:38;35.60;43.40
62259;DHT22;48241;48.824;10.102;2023-09-07T10:09:11;34.70;42.00
62259;DHT22;48241;48.824;10.102;2023-09-07T10:14:17;31.80;45.50
62259;DHT22;48241;48.824;10.102;2023-09-07T10:16:45;30.60;47.70
62259;DHT22;48241;48.824;10.102;2023-09-07T10:19:18;30.00;49.50
62259;DHT22;48241;48.824;10.102;2023-09-07T10:21:44;29.60;50.80
62259;DHT22;48241;48.824;10.102;2023-09-07T10:24:10;29.00;52.50
62259;DHT22;48241;48.824;10.102;2023-09-07T10:26:36;28.50;52.40
62259;DHT22;48241;48.824;10.102;2023-09-07T10:29:11;28.10;53.70
62259;DHT22;48241;48.824;10.102;2023-09-07T10:31:51;28.10;55.20
62259;DHT22;48241;48.824;10.102;2023-09-07T10:34:34;27.70;53.40
62259;DHT22;48241;48.824;10.102;2023-09-07T10:39:45;27.70;54.10
62259;DHT22;48241;48.824;10.102;2023-09-07T10:42:21;27.80;55.20
62259;DHT22;48241;48.824;10.102;2023-09-07T10:44:47;27.60;56.40
62259;DHT22;48241;48.824;10.102;2023-09-07T10:47:13;27.70;54.80
62259;DHT22;48241;48.824;10.102;2023-09-07T10:49:39;27.70;58.10
62259;DHT22;48241;48.824;10.102;2023-09-07T10:52:05;27.70;55.80
62259;DHT22;48241;48.824;10.102;2023-09-07T10:54:30;27.60;55.30
62259;DHT22;48241;48.824;10.102;2023-09-07T10:56:56;27.40;54.80
62259;DHT22;48241;48.824;10.102;2023-09-07T10:59:27;27.10;56.10
62259;DHT22;48241;48.824;10.102;2023-09-07T11:01:53;26.90;56.60
62259;DHT22;48241;48.824;10.102;2023-09-07T11:04:26;27.00;57.00
62259;DHT22;48241;48.824;10.102;2023-09-07T11:07:01;26.70;57.40
62259;DHT22;48241;48.824;10.102;2023-09-07T11:09:30;26.90;57.20
62259;DHT22;48241;48.824;10.102;2023-09-07T11:11:55;26.90;58.20
62259;DHT22;48241;48.824;10.102;2023-09-07T11:14:22;27.00;57.00
62259;DHT22;48241;48.824;10.102;2023-09-07T11:16:47;26.90;58.50
62259;DHT22;48241;48.824;10.102;2023-09-07T11:19:13;27.20;58.50
62259;DHT22;48241;48.824;10.102;2023-09-07T11:21:40;27.10;57.60
62259;DHT22;48241;48.824;10.102;2023-09-07T11:24:06;27.10;56.50
62259;DHT22;48241;48.824;10.102;2023-09-07T11:26:43;27.10;58.50
62259;DHT22;48241;48.824;10.102;2023-09-07T11:29:09;27.20;58.30
62259;DHT22;48241;48.824;10.102;2023-09-07T11:31:35;27.20;57.80
62259;DHT22;48241;48.824;10.102;2023-09-07T11:34:17;27.00;58.50
62259;DHT22;48241;48.824;10.102;2023-09-07T11:36:46;27.20;58.70
62259;DHT22;48241;48.824;10.102;2023-09-07T11:39:12;27.30;57.10
62259;DHT22;48241;48.824;10.102;2023-09-07T11:41:42;27.20;57.60
62259;DHT22;48241;48.824;10.102;2023-09-07T11:44:16;27.20;56.90
62259;DHT22;48241;48.824;10.102;2023-09-07T11:46:47;27.30;56.90
62259;DHT22;48241;48.824;10.102;2023-09-07T11:49:13;27.10;57.60
62259;DHT22;48241;48.824;10.102;2023-09-07T11:51:42;27.20;59.60
62259;DHT22;48241;48.824;10.102;2023-09-07T11:54:07;27.30;58.20
62259;DHT22;48241;48.824;10.102;2023-09-07T11:56:39;27.30;57.80
62259;DHT22;48241;48.824;10.102;2023-09-07T11:59:08;27.30;57.70
62259;DHT22;48241;48.824;10.102;2023-09-07T12:01:43;26.80;58.90
62259;DHT22;48241;48.824;10.102;2023-09-07T12:04:09;26.90;59.40
62259;DHT22;48241;48.824;10.102;2023-09-07T12:06:38;27.10;58.50
62259;DHT22;48241;48.824;10.102;2023-09-07T12:09:07;27.50;64.10
62259;DHT22;48241;48.824;10.102;2023-09-07T12:11:36;27.60;57.80
62259;DHT22;48241;48.824;10.102;2023-09-07T12:14:02;27.50;56.20
62259;DHT22;48241;48.824;10.102;2023-09-07T12:16:29;27.70;60.30
62259;DHT22;48241;48.824;10.102;2023-09-07T12:18:59;27.80;55.90
62259;DHT22;48241;48.824;10.102;2023-09-07T12:21:24;27.90;56.40
62259;DHT22;48241;48.824;10.102;2023-09-07T12:24:13;27.70;56.10
62259;DHT22;48241;48.824;10.102;2023-09-07T12:26:46;27.70;54.80
62259;DHT22;48241;48.824;10.102;2023-09-07T12:29:38;27.70;58.80
62259;DHT22;48241;48.824;10.102;2023-09-07T12:32:04;27.60;58.80
62259;DHT22;48241;48.824;10.102;2023-09-07T12:34:30;27.60;57.30
62259;DHT22;48241;48.824;10.102;2023-09-07T12:36:55;27.60;55.90
62259;DHT22;48241;48.824;10.102;2023-09-07T12:39:21;27.50;55.70
62259;DHT22;48241;48.824;10.102;2023-09-07T12:41:47;27.40;53.70
62259;DHT22;48241;48.824;10.102;2023-09-07T12:44:21;27.40;54.10
62259;DHT22;48241;48.824;10.102;2023-09-07T12:46:47;27.20;54.20
62259;DHT22;48241;48.824;10.102;2023-09-07T12:49:12;27.20;56.40
62259;DHT22;48241;48.824;10.102;2023-09-07T12:51:46;27.50;53.90
62259;DHT22;48241;48.824;10.102;2023-09-07T12:54:12;27.70;55.60
62259;DHT22;48241;48.824;10.102;2023-09-07T12:56:38;27.30;56.50
62259;DHT22;48241;48.824;10.102;2023-09-07T12:59:03;27.60;54.50
62259;DHT22;48241;48.824;10.102;2023-09-07T13:01:29;27.80;55.10
62259;DHT22;48241;48.824;10.102;2023-09-07T13:03:56;27.90;53.40
62259;DHT22;48241;48.824;10.102;2023-09-07T13:06:22;27.70;52.60
62259;DHT22;48241;48.824;10.102;2023-09-07T13:08:48;27.80;54.20
62259;DHT22;48241;48.824;10.102;2023-09-07T13:11:19;27.50;53.50
62259;DHT22;48241;48.824;10.102;2023-09-07T13:13:45;27.80;54.20
62259;DHT22;48241;48.824;10.102;2023-09-07T13:16:10;27.70;51.90
62259;DHT22;48241;48.824;10.102;2023-09-07T13:18:59;27.80;50.80
62259;DHT22;48241;48.824;10.102;2023-09-07T13:21:25;27.70;50.90
62259;DHT22;48241;48.824;10.102;2023-09-07T13:23:50;27.90;49.60
62259;DHT22;48241;48.824;10.102;2023-09-07T13:26:19;27.90;50.50
62259;DHT22;48241;48.824;10.102;2023-09-07T13:28:44;27.80;50.60
62259;DHT22;48241;48.824;10.102;2023-09-07T13:31:10;27.80;52.20
62259;DHT22;48241;48.824;10.102;2023-09-07T13:33:54;28.00;50.40
62259;DHT22;48241;48.824;10.102;2023-09-07T13:36:19;27.80;51.90
62259;DHT22;48241;48.824;10.102;2023-09-07T13:38:45;27.80;53.70
62259;DHT22;48241;48.824;10.102;2023-09-07T13:41:37;27.80;49.10
62259;DHT22;48241;48.824;10.102;2023-09-07T13:44:03;27.90;52.50
62259;DHT22;48241;48.824;10.102;2023-09-07T13:46:28;27.50;51.40
62259;DHT22;48241;48.824;10.102;2023-09-07T13:48:54;27.50;50.20
62259;DHT22;48241;48.824;10.102;2023-09-07T13:51:20;27.60;51.70
62259;DHT22;48241;48.824;10.102;2023-09-07T13:53:45;27.70;51.90
62259;DHT22;48241;48.824;10.102;2023-09-07T13:56:11;28.00;51.50
62259;DHT22;48241;48.824;10.102;2023-09-07T13:58:37;28.00;49.60
62259;DHT22;48241;48.824;10.102;2023-09-07T14:01:02;28.20;50.00
62259;DHT22;48241;48.824;10.102;2023-09-07T14:03:28;28.20;47.60
62259;DHT22;48241;48.824;10.102;2023-09-07T14:05:53;28.20;48.50
62259;DHT22;48241;48.824;10.102;2023-09-07T14:08:20;28.20;53.70
62259;DHT22;48241;48.824;10.102;2023-09-07T14:10:49;27.90;51.20
62259;DHT22;48241;48.824;10.102;2023-09-07T14:13:14;27.80;48.90
62259;DHT22;48241;48.824;10.102;2023-09-07T14:15:40;28.00;48.90
62259;DHT22;48241;48.824;10.102;2023-09-07T14:18:06;28.00;48.70
62259;DHT22;48241;48.824;10.102;2023-09-07T14:20:33;28.10;50.00
62259;DHT22;48241;48.824;10.102;2023-09-07T14:22:59;28.10;47.60
62259;DHT22;48241;48.824;10.102;2023-09-07T14:25:26;28.20;50.10
62259;DHT22;48241;48.824;10.102;2023-09-07T14:27:51;28.10;48.50
62259;DHT22;48241;48.824;10.102;2023-09-07T14:30:17;27.90;51.30
62259;DHT22;48241;48.824;10.102;2023-09-07T14:32:43;28.10;51.40
62259;DHT22;48241;48.824;10.102;2023-09-07T14:35:45;28.20;48.30
62259;DHT22;48241;48.824;10.102;2023-09-07T14:38:10;27.70;49.00
62259;DHT22;48241;48.824;10.102;2023-09-07T14:40:45;27.70;48.40
62259;DHT22;48241;48.824;10.102;2023-09-07T14:43:18;27.90;56.10
62259;DHT22;48241;48.824;10.102;2023-09-07T14:45:44;27.80;46.90
62259;DHT22;48241;48.824;10.102;2023-09-07T14:48:12;27.70;48.20
62259;DHT22;48241;48.824;10.102;2023-09-07T14:50:47;27.70;49.70
62259;DHT22;48241;48.824;10.102;2023-09-07T14:53:16;27.70;50.60
62259;DHT22;48241;48.824;10.102;2023-09-07T14:55:59;27.90;50.20
62259;DHT22;48241;48.824;10.102;2023-09-07T14:58:25;27.90;58.10
62259;DHT22;48241;48.824;10.102;2023-09-07T15:01:00;27.80;58.00
62259;DHT22;48241;48.824;10.102;2023-09-07T15:03:31;27.70;50.50
62259;DHT22;48241;48.824;10.102;2023-09-07T15:06:03;27.50;48.80
62259;DHT22;48241;48.824;10.102;2023-09-07T15:08:29;27.50;49.60
62259;DHT22;48241;48.824;10.102;2023-09-07T15:14:19;27.00;56.20
62259;DHT22;48241;48.824;10.102;2023-09-07T15:17:20;27.10;59.40
62259;DHT22;48241;48.824;10.102;2023-09-07T15:19:45;26.80;52.40
62259;DHT22;48241;48.824;10.102;2023-09-07T15:22:11;26.80;53.40
62259;DHT22;48241;48.824;10.102;2023-09-07T15:24:37;26.60;54.70
62259;DHT22;48241;48.824;10.102;2023-09-07T15:27:10;26.50;52.80
62259;DHT22;48241;48.824;10.102;2023-09-07T15:29:39;26.60;59.10
62259;DHT22;48241;48.824;10.102;2023-09-07T15:32:13;26.30;61.00
62259;DHT22;48241;48.824;10.102;2023-09-07T15:34:39;26.30;61.00
62259;DHT22;48241;48.824;10.102;2023-09-07T15:37:16;26.00;59.20
62259;DHT22;48241;48.824;10.102;2023-09-07T15:39:42;25.80;63.40